Create Tblcommutelog Verified Points Advance Search
| # | Trip ID | Id Commuter | Trip Date | Trip Num | Current Lat | Current Lng | Delta Distance | Current Time | Activity | Activity Confidence | Current Speed | |
|---|---|---|---|---|---|---|---|---|---|---|---|---|
| 71221 | 260225_758717_16625195_1534 | 758717 | (not set) | (not set) | 39.463758428109 | -76.65963729249 | 5.9608 | 2026-02-25 15:45:29 | in_vehicle | 100 | 14.488542383792 | |
| 71222 | 260225_786079_16654343_1539 | 786079 | (not set) | (not set) | 39.340107851157 | -76.589716413692 | 0.8478 | 2026-02-25 15:46:08 | unknown | 100 | 0.52750632560551 | |
| 71223 | 260225_783893_16651689_1546 | 783893 | (not set) | (not set) | 38.928677561151 | -77.032950315843 | 0 | 2026-02-25 15:46:43 | in_vehicle | 100 | -0.44703925898772 | |
| 71224 | 260225_791172_16660292_1525 | 791172 | (not set) | (not set) | 38.978201933333 | -77.021691233333 | 3.5226 | 2026-02-25 15:47:08 | in_vehicle | 100 | 1.2204171770365 | |
| 71225 | 260225_784707_16652702_1514 | 784707 | (not set) | (not set) | 39.135258256939 | -76.915611871451 | 17.5194 | 2026-02-25 15:47:43 | in_vehicle | 100 | 11.699017407709 | |
| 71226 | 260225_791172_16660292_1525 | 791172 | (not set) | (not set) | 38.981693766667 | -77.022242183333 | 3.7734 | 2026-02-25 15:48:12 | in_vehicle | 100 | 5.7712768335315 | |
| 71227 | 260225_738960_16653922_1545 | 738960 | (not set) | (not set) | 38.88278686554 | -76.991830203549 | 0.8209 | 2026-02-25 15:48:47 | in_vehicle | 100 | 5.7042209446834 | |
| 71228 | 260225_791516_16660673_1549 | 791516 | (not set) | (not set) | 39.280180073664 | -76.661908489186 | 0 | 2026-02-25 15:49:09 | unknown | 100 | -0.44703925898772 | |
| 71229 | 260225_758717_16625195_1534 | 758717 | (not set) | (not set) | 39.534848976819 | -76.664703200263 | 11.0083 | 2026-02-25 15:49:51 | in_vehicle | 100 | 14.528775917101 | |
| 71230 | 260225_792138_16661320_1534 | 792138 | (not set) | (not set) | 38.859642517921 | -77.049152734937 | 2.4224 | 2026-02-25 15:50:25 | in_vehicle | 100 | 3.2186826647116 | |
| 71231 | 260225_792138_16661320_1534 | 792138 | (not set) | (not set) | 38.86007796949 | -77.050298849814 | 2.4911 | 2026-02-25 15:51:03 | in_vehicle | 100 | 5.7578656557619 | |
| 71232 | 260225_783893_16651689_1546 | 783893 | (not set) | (not set) | 38.931460823434 | -77.032850808612 | 0.1935 | 2026-02-25 15:51:43 | on_foot | 100 | 0.70185163661073 | |
| 71233 | 260225_758717_16625195_1534 | 758717 | (not set) | (not set) | 39.570661864339 | -76.671742653139 | 13.604 | 2026-02-25 15:52:01 | in_vehicle | 100 | 14.55112788005 | |
| 71234 | 260225_791172_16660292_1525 | 791172 | (not set) | (not set) | 38.991607166667 | -77.035593583333 | 4.7803 | 2026-02-25 15:52:31 | in_vehicle | 100 | 0 | |
| 71235 | 260225_758717_16625195_1534 | 758717 | (not set) | (not set) | 39.585984576058 | -76.676338065352 | 14.7591 | 2026-02-25 15:53:05 | in_vehicle | 100 | 12.275698051803 | |
| 71236 | 260225_784875_16652918_1550 | 784875 | (not set) | (not set) | 38.902718564532 | -77.039282983241 | 0 | 2026-02-25 15:53:28 | on_foot | 100 | 0 | |
| 71237 | 260225_786078_16654342_1540 | 786078 | (not set) | (not set) | 39.343145259897 | -76.561288007891 | 2.4672 | 2026-02-25 15:53:44 | in_vehicle | 100 | 4.9755469525334 | |
| 71238 | 260225_786078_16654342_1540 | 786078 | (not set) | (not set) | 39.344063959116 | -76.559830709556 | 2.5677 | 2026-02-25 15:53:58 | in_vehicle | 100 | 5.2974152190045 | |
| 71239 | 260225_783893_16651689_1546 | 783893 | (not set) | (not set) | 38.933749474182 | -77.032866380887 | 0.3514 | 2026-02-25 15:54:24 | on_foot | 100 | 0.67502928107146 | |
| 71240 | 260225_788077_16656633_1552 | 788077 | (not set) | (not set) | 38.823451859769 | -76.914529149138 | 0.4066 | 2026-02-25 15:54:41 | in_vehicle | 100 | 8.4669235652275 |